sensor_id;sensor_type;location;lat;lon;timestamp;P1;durP1;ratioP1;P2;durP2;ratioP2
74535;SDS011;63013;51.104;-115.370;2023-01-08T00:01:40;0.30;;;0.30;;
74535;SDS011;63013;51.104;-115.370;2023-01-08T00:04:08;0.30;;;0.30;;
74535;SDS011;63013;51.104;-115.370;2023-01-08T00:06:36;0.80;;;0.30;;
74535;SDS011;63013;51.104;-115.370;2023-01-08T00:09:03;0.90;;;0.70;;
74535;SDS011;63013;51.104;-115.370;2023-01-08T00:11:30;24.90;;;13.70;;
74535;SDS011;63013;51.104;-115.370;2023-01-08T00:13:58;39.80;;;23.00;;
74535;SDS011;63013;51.104;-115.370;2023-01-08T00:16:25;38.20;;;21.20;;
74535;SDS011;63013;51.104;-115.370;2023-01-08T00:18:53;28.50;;;17.50;;
74535;SDS011;63013;51.104;-115.370;2023-01-08T00:21:20;27.20;;;17.20;;
74535;SDS011;63013;51.104;-115.370;2023-01-08T00:23:47;27.40;;;15.90;;
74535;SDS011;63013;51.104;-115.370;2023-01-08T00:26:15;26.30;;;15.70;;
74535;SDS011;63013;51.104;-115.370;2023-01-08T00:28:42;23.70;;;14.60;;
74535;SDS011;63013;51.104;-115.370;2023-01-08T00:31:10;26.90;;;15.40;;
74535;SDS011;63013;51.104;-115.370;2023-01-08T00:33:39;21.60;;;13.30;;
74535;SDS011;63013;51.104;-115.370;2023-01-08T00:36:08;24.40;;;12.80;;
74535;SDS011;63013;51.104;-115.370;2023-01-08T00:38:37;24.10;;;12.50;;
74535;SDS011;63013;51.104;-115.370;2023-01-08T00:41:05;19.70;;;11.60;;
74535;SDS011;63013;51.104;-115.370;2023-01-08T00:43:32;21.10;;;11.50;;
74535;SDS011;63013;51.104;-115.370;2023-01-08T00:46:00;20.20;;;11.30;;
74535;SDS011;63013;51.104;-115.370;2023-01-08T00:48:28;19.20;;;10.30;;
74535;SDS011;63013;51.104;-115.370;2023-01-08T00:50:56;18.20;;;10.40;;
74535;SDS011;63013;51.104;-115.370;2023-01-08T00:53:23;16.30;;;9.30;;
74535;SDS011;63013;51.104;-115.370;2023-01-08T00:55:59;17.60;;;9.50;;
74535;SDS011;63013;51.104;-115.370;2023-01-08T00:58:31;18.90;;;9.40;;
74535;SDS011;63013;51.104;-115.370;2023-01-08T01:00:58;16.30;;;9.00;;
74535;SDS011;63013;51.104;-115.370;2023-01-08T01:03:26;14.60;;;8.40;;
74535;SDS011;63013;51.104;-115.370;2023-01-08T01:06:00;17.50;;;8.70;;
74535;SDS011;63013;51.104;-115.370;2023-01-08T01:08:29;13.20;;;7.50;;
74535;SDS011;63013;51.104;-115.370;2023-01-08T01:10:56;14.90;;;7.60;;
74535;SDS011;63013;51.104;-115.370;2023-01-08T01:13:23;13.60;;;6.70;;
74535;SDS011;63013;51.104;-115.370;2023-01-08T01:16:01;12.30;;;6.80;;
74535;SDS011;63013;51.104;-115.370;2023-01-08T01:18:29;13.80;;;6.60;;
74535;SDS011;63013;51.104;-115.370;2023-01-08T01:20:57;12.90;;;6.80;;
74535;SDS011;63013;51.104;-115.370;2023-01-08T01:23:24;13.20;;;6.10;;
74535;SDS011;63013;51.104;-115.370;2023-01-08T01:25:51;9.90;;;5.80;;
74535;SDS011;63013;51.104;-115.370;2023-01-08T01:28:19;11.50;;;5.80;;
74535;SDS011;63013;51.104;-115.370;2023-01-08T01:30:53;11.40;;;6.30;;
74535;SDS011;63013;51.104;-115.370;2023-01-08T01:33:21;13.30;;;5.80;;
74535;SDS011;63013;51.104;-115.370;2023-01-08T01:35:57;12.70;;;5.70;;
74535;SDS011;63013;51.104;-115.370;2023-01-08T01:38:25;10.50;;;5.00;;
74535;SDS011;63013;51.104;-115.370;2023-01-08T01:40:52;9.50;;;5.40;;
74535;SDS011;63013;51.104;-115.370;2023-01-08T01:43:39;10.70;;;5.20;;
74535;SDS011;63013;51.104;-115.370;2023-01-08T01:46:19;10.80;;;5.20;;
74535;SDS011;63013;51.104;-115.370;2023-01-08T01:48:55;9.00;;;4.60;;
74535;SDS011;63013;51.104;-115.370;2023-01-08T01:51:32;9.80;;;5.30;;
74535;SDS011;63013;51.104;-115.370;2023-01-08T01:54:04;10.00;;;4.20;;
74535;SDS011;63013;51.104;-115.370;2023-01-08T01:56:34;9.30;;;4.40;;
74535;SDS011;63013;51.104;-115.370;2023-01-08T01:59:02;8.90;;;4.20;;
74535;SDS011;63013;51.104;-115.370;2023-01-08T02:01:31;7.20;;;3.90;;
74535;SDS011;63013;51.104;-115.370;2023-01-08T02:03:59;8.60;;;4.10;;
74535;SDS011;63013;51.104;-115.370;2023-01-08T02:06:37;9.20;;;4.00;;
74535;SDS011;63013;51.104;-115.370;2023-01-08T02:11:46;7.70;;;3.50;;
74535;SDS011;63013;51.104;-115.370;2023-01-08T02:22:12;8.90;;;4.10;;
74535;SDS011;63013;51.104;-115.370;2023-01-08T02:28:24;14.50;;;5.90;;
74535;SDS011;63013;51.104;-115.370;2023-01-08T02:30:54;10.50;;;4.80;;
74535;SDS011;63013;51.104;-115.370;2023-01-08T02:33:28;12.20;;;4.60;;
74535;SDS011;63013;51.104;-115.370;2023-01-08T02:39:35;9.10;;;4.30;;
74535;SDS011;63013;51.104;-115.370;2023-01-08T02:42:39;10.80;;;4.00;;
74535;SDS011;63013;51.104;-115.370;2023-01-08T02:45:47;7.60;;;4.00;;
74535;SDS011;63013;51.104;-115.370;2023-01-08T02:51:40;8.60;;;3.70;;
74535;SDS011;63013;51.104;-115.370;2023-01-08T02:54:34;8.50;;;3.60;;
74535;SDS011;63013;51.104;-115.370;2023-01-08T02:57:09;10.00;;;3.60;;
74535;SDS011;63013;51.104;-115.370;2023-01-08T02:59:44;9.30;;;3.90;;
74535;SDS011;63013;51.104;-115.370;2023-01-08T03:02:14;9.00;;;3.30;;
74535;SDS011;63013;51.104;-115.370;2023-01-08T03:05:02;8.80;;;3.80;;
74535;SDS011;63013;51.104;-115.370;2023-01-08T03:07:35;6.60;;;3.30;;
74535;SDS011;63013;51.104;-115.370;2023-01-08T03:10:03;9.80;;;3.30;;
74535;SDS011;63013;51.104;-115.370;2023-01-08T03:12:50;9.20;;;3.70;;
74535;SDS011;63013;51.104;-115.370;2023-01-08T03:15:51;9.40;;;3.40;;
74535;SDS011;63013;51.104;-115.370;2023-01-08T03:18:30;9.10;;;3.30;;
74535;SDS011;63013;51.104;-115.370;2023-01-08T03:21:07;6.30;;;2.90;;
74535;SDS011;63013;51.104;-115.370;2023-01-08T03:23:37;8.20;;;3.00;;
74535;SDS011;63013;51.104;-115.370;2023-01-08T03:26:09;7.60;;;3.10;;
74535;SDS011;63013;51.104;-115.370;2023-01-08T03:28:46;7.90;;;3.00;;
74535;SDS011;63013;51.104;-115.370;2023-01-08T03:31:22;8.60;;;3.10;;
74535;SDS011;63013;51.104;-115.370;2023-01-08T03:33:55;8.10;;;3.10;;
74535;SDS011;63013;51.104;-115.370;2023-01-08T03:36:29;7.90;;;2.90;;
74535;SDS011;63013;51.104;-115.370;2023-01-08T03:39:17;9.50;;;3.30;;
74535;SDS011;63013;51.104;-115.370;2023-01-08T03:41:53;6.30;;;2.60;;
74535;SDS011;63013;51.104;-115.370;2023-01-08T03:44:34;5.60;;;2.30;;
74535;SDS011;63013;51.104;-115.370;2023-01-08T03:47:15;6.90;;;2.80;;
74535;SDS011;63013;51.104;-115.370;2023-01-08T03:49:48;5.80;;;2.30;;
74535;SDS011;63013;51.104;-115.370;2023-01-08T03:52:22;6.30;;;2.50;;
74535;SDS011;63013;51.104;-115.370;2023-01-08T03:54:52;5.50;;;2.60;;
74535;SDS011;63013;51.104;-115.370;2023-01-08T03:57:19;7.00;;;3.00;;
74535;SDS011;63013;51.104;-115.370;2023-01-08T03:59:50;5.50;;;2.60;;
74535;SDS011;63013;51.104;-115.370;2023-01-08T04:02:17;5.00;;;2.30;;
74535;SDS011;63013;51.104;-115.370;2023-01-08T04:04:47;7.40;;;3.00;;
74535;SDS011;63013;51.104;-115.370;2023-01-08T04:07:14;6.20;;;3.00;;
74535;SDS011;63013;51.104;-115.370;2023-01-08T04:09:42;5.70;;;2.30;;
74535;SDS011;63013;51.104;-115.370;2023-01-08T04:12:10;5.70;;;2.40;;
74535;SDS011;63013;51.104;-115.370;2023-01-08T04:14:37;5.00;;;2.40;;
74535;SDS011;63013;51.104;-115.370;2023-01-08T04:17:04;6.50;;;2.60;;
74535;SDS011;63013;51.104;-115.370;2023-01-08T04:19:32;6.20;;;2.70;;
74535;SDS011;63013;51.104;-115.370;2023-01-08T04:21:59;5.40;;;2.40;;
74535;SDS011;63013;51.104;-115.370;2023-01-08T04:24:27;5.70;;;2.40;;
74535;SDS011;63013;51.104;-115.370;2023-01-08T04:26:54;5.50;;;2.30;;
74535;SDS011;63013;51.104;-115.370;2023-01-08T04:29:24;4.90;;;2.30;;
74535;SDS011;63013;51.104;-115.370;2023-01-08T04:31:52;5.10;;;2.00;;
74535;SDS011;63013;51.104;-115.370;2023-01-08T04:34:19;5.60;;;2.70;;
74535;SDS011;63013;51.104;-115.370;2023-01-08T04:36:46;5.00;;;2.40;;
74535;SDS011;63013;51.104;-115.370;2023-01-08T04:39:14;6.00;;;2.40;;
74535;SDS011;63013;51.104;-115.370;2023-01-08T04:41:42;4.90;;;2.30;;
74535;SDS011;63013;51.104;-115.370;2023-01-08T04:44:09;5.40;;;2.60;;
74535;SDS011;63013;51.104;-115.370;2023-01-08T04:46:37;6.20;;;2.40;;
74535;SDS011;63013;51.104;-115.370;2023-01-08T04:49:04;5.60;;;2.40;;
74535;SDS011;63013;51.104;-115.370;2023-01-08T04:51:35;6.20;;;2.30;;
74535;SDS011;63013;51.104;-115.370;2023-01-08T04:54:02;4.30;;;2.10;;
74535;SDS011;63013;51.104;-115.370;2023-01-08T04:56:33;4.20;;;1.90;;
74535;SDS011;63013;51.104;-115.370;2023-01-08T04:59:01;4.30;;;2.30;;
74535;SDS011;63013;51.104;-115.370;2023-01-08T05:01:29;6.10;;;2.20;;
74535;SDS011;63013;51.104;-115.370;2023-01-08T05:03:59;4.30;;;2.00;;
74535;SDS011;63013;51.104;-115.370;2023-01-08T05:06:29;5.10;;;2.10;;
74535;SDS011;63013;51.104;-115.370;2023-01-08T05:08:58;5.60;;;2.30;;
74535;SDS011;63013;51.104;-115.370;2023-01-08T05:11:25;4.50;;;1.90;;
74535;SDS011;63013;51.104;-115.370;2023-01-08T05:13:53;4.30;;;2.00;;
74535;SDS011;63013;51.104;-115.370;2023-01-08T05:16:22;5.40;;;2.20;;
74535;SDS011;63013;51.104;-115.370;2023-01-08T05:18:50;5.40;;;2.20;;
74535;SDS011;63013;51.104;-115.370;2023-01-08T05:21:17;3.60;;;1.90;;
74535;SDS011;63013;51.104;-115.370;2023-01-08T05:23:46;4.20;;;2.00;;
74535;SDS011;63013;51.104;-115.370;2023-01-08T05:26:14;3.20;;;1.90;;
74535;SDS011;63013;51.104;-115.370;2023-01-08T05:28:46;4.90;;;1.90;;
74535;SDS011;63013;51.104;-115.370;2023-01-08T05:31:13;4.00;;;1.90;;
74535;SDS011;63013;51.104;-115.370;2023-01-08T05:33:41;5.40;;;2.00;;
74535;SDS011;63013;51.104;-115.370;2023-01-08T05:36:10;3.60;;;1.60;;
74535;SDS011;63013;51.104;-115.370;2023-01-08T05:38:47;6.10;;;2.00;;
74535;SDS011;63013;51.104;-115.370;2023-01-08T05:41:14;3.90;;;1.90;;
74535;SDS011;63013;51.104;-115.370;2023-01-08T05:43:42;5.00;;;1.90;;
74535;SDS011;63013;51.104;-115.370;2023-01-08T05:46:10;4.80;;;2.00;;
74535;SDS011;63013;51.104;-115.370;2023-01-08T05:48:37;4.90;;;2.10;;
74535;SDS011;63013;51.104;-115.370;2023-01-08T05:51:05;4.60;;;1.90;;
74535;SDS011;63013;51.104;-115.370;2023-01-08T05:53:32;3.40;;;1.60;;
74535;SDS011;63013;51.104;-115.370;2023-01-08T05:56:05;3.80;;;1.60;;
74535;SDS011;63013;51.104;-115.370;2023-01-08T05:58:33;4.30;;;2.00;;
74535;SDS011;63013;51.104;-115.370;2023-01-08T06:01:06;3.70;;;1.90;;
74535;SDS011;63013;51.104;-115.370;2023-01-08T06:03:36;3.50;;;1.90;;
74535;SDS011;63013;51.104;-115.370;2023-01-08T06:06:09;5.00;;;2.00;;
74535;SDS011;63013;51.104;-115.370;2023-01-08T06:08:37;3.90;;;1.80;;
74535;SDS011;63013;51.104;-115.370;2023-01-08T06:11:07;5.00;;;1.80;;
74535;SDS011;63013;51.104;-115.370;2023-01-08T06:13:39;3.60;;;1.80;;
74535;SDS011;63013;51.104;-115.370;2023-01-08T06:16:08;3.60;;;1.50;;
74535;SDS011;63013;51.104;-115.370;2023-01-08T06:18:35;3.90;;;1.70;;
74535;SDS011;63013;51.104;-115.370;2023-01-08T06:21:03;3.20;;;1.60;;
74535;SDS011;63013;51.104;-115.370;2023-01-08T06:23:31;4.00;;;1.80;;
74535;SDS011;63013;51.104;-115.370;2023-01-08T06:26:00;3.70;;;1.50;;
74535;SDS011;63013;51.104;-115.370;2023-01-08T06:28:31;4.00;;;1.70;;
74535;SDS011;63013;51.104;-115.370;2023-01-08T06:31:00;3.60;;;1.70;;
74535;SDS011;63013;51.104;-115.370;2023-01-08T06:33:30;3.40;;;1.50;;
74535;SDS011;63013;51.104;-115.370;2023-01-08T06:36:02;3.10;;;1.60;;
74535;SDS011;63013;51.104;-115.370;2023-01-08T06:38:35;4.50;;;1.70;;
74535;SDS011;63013;51.104;-115.370;2023-01-08T06:41:05;3.90;;;1.60;;
74535;SDS011;63013;51.104;-115.370;2023-01-08T06:43:34;2.80;;;1.60;;
74535;SDS011;63013;51.104;-115.370;2023-01-08T06:46:03;3.20;;;1.60;;
74535;SDS011;63013;51.104;-115.370;2023-01-08T06:48:31;3.40;;;1.70;;
74535;SDS011;63013;51.104;-115.370;2023-01-08T06:51:03;4.20;;;1.60;;
74535;SDS011;63013;51.104;-115.370;2023-01-08T06:53:32;3.20;;;1.40;;
74535;SDS011;63013;51.104;-115.370;2023-01-08T06:56:00;3.50;;;1.50;;
74535;SDS011;63013;51.104;-115.370;2023-01-08T06:58:32;3.90;;;1.40;;
74535;SDS011;63013;51.104;-115.370;2023-01-08T07:01:00;4.00;;;1.60;;
74535;SDS011;63013;51.104;-115.370;2023-01-08T07:03:27;3.90;;;1.70;;
74535;SDS011;63013;51.104;-115.370;2023-01-08T07:05:55;4.80;;;1.70;;
74535;SDS011;63013;51.104;-115.370;2023-01-08T07:08:22;3.00;;;1.30;;
74535;SDS011;63013;51.104;-115.370;2023-01-08T07:10:50;3.50;;;1.40;;
74535;SDS011;63013;51.104;-115.370;2023-01-08T07:13:17;3.40;;;1.60;;
74535;SDS011;63013;51.104;-115.370;2023-01-08T07:15:44;2.70;;;1.50;;
74535;SDS011;63013;51.104;-115.370;2023-01-08T07:18:12;2.90;;;1.30;;
74535;SDS011;63013;51.104;-115.370;2023-01-08T07:20:39;3.30;;;1.50;;
74535;SDS011;63013;51.104;-115.370;2023-01-08T07:23:09;2.80;;;1.20;;
74535;SDS011;63013;51.104;-115.370;2023-01-08T07:25:38;3.40;;;1.40;;
74535;SDS011;63013;51.104;-115.370;2023-01-08T07:28:11;2.30;;;1.40;;
74535;SDS011;63013;51.104;-115.370;2023-01-08T07:30:39;3.60;;;1.40;;
74535;SDS011;63013;51.104;-115.370;2023-01-08T07:33:06;2.80;;;1.50;;
74535;SDS011;63013;51.104;-115.370;2023-01-08T07:35:34;4.20;;;1.50;;
74535;SDS011;63013;51.104;-115.370;2023-01-08T07:38:05;2.80;;;1.30;;
74535;SDS011;63013;51.104;-115.370;2023-01-08T07:40:32;3.70;;;1.30;;
74535;SDS011;63013;51.104;-115.370;2023-01-08T07:43:01;2.40;;;1.50;;
74535;SDS011;63013;51.104;-115.370;2023-01-08T07:45:31;3.70;;;1.50;;
74535;SDS011;63013;51.104;-115.370;2023-01-08T07:47:59;3.60;;;1.30;;
74535;SDS011;63013;51.104;-115.370;2023-01-08T07:50:27;3.10;;;1.50;;
74535;SDS011;63013;51.104;-115.370;2023-01-08T07:53:00;2.80;;;1.20;;
74535;SDS011;63013;51.104;-115.370;2023-01-08T07:55:29;2.40;;;1.10;;
74535;SDS011;63013;51.104;-115.370;2023-01-08T07:57:57;2.90;;;1.30;;
74535;SDS011;63013;51.104;-115.370;2023-01-08T08:00:24;2.30;;;0.90;;
74535;SDS011;63013;51.104;-115.370;2023-01-08T08:02:52;3.10;;;1.40;;
74535;SDS011;63013;51.104;-115.370;2023-01-08T08:05:19;3.00;;;1.50;;
74535;SDS011;63013;51.104;-115.370;2023-01-08T08:07:47;3.90;;;1.40;;
74535;SDS011;63013;51.104;-115.370;2023-01-08T08:10:14;1.90;;;1.10;;
74535;SDS011;63013;51.104;-115.370;2023-01-08T08:12:44;2.40;;;1.10;;
74535;SDS011;63013;51.104;-115.370;2023-01-08T08:15:11;3.80;;;1.40;;
74535;SDS011;63013;51.104;-115.370;2023-01-08T08:17:38;3.10;;;1.50;;
74535;SDS011;63013;51.104;-115.370;2023-01-08T08:20:09;2.60;;;1.30;;
74535;SDS011;63013;51.104;-115.370;2023-01-08T08:22:37;2.20;;;1.20;;
74535;SDS011;63013;51.104;-115.370;2023-01-08T08:25:04;2.50;;;1.40;;
74535;SDS011;63013;51.104;-115.370;2023-01-08T08:27:37;2.30;;;1.40;;
74535;SDS011;63013;51.104;-115.370;2023-01-08T08:30:05;2.00;;;1.10;;
74535;SDS011;63013;51.104;-115.370;2023-01-08T08:32:33;2.40;;;1.00;;
74535;SDS011;63013;51.104;-115.370;2023-01-08T08:35:00;2.10;;;1.00;;
74535;SDS011;63013;51.104;-115.370;2023-01-08T08:37:27;2.30;;;1.30;;
74535;SDS011;63013;51.104;-115.370;2023-01-08T08:39:54;2.40;;;1.30;;
74535;SDS011;63013;51.104;-115.370;2023-01-08T08:42:22;2.50;;;1.30;;
74535;SDS011;63013;51.104;-115.370;2023-01-08T08:44:50;1.90;;;1.10;;
74535;SDS011;63013;51.104;-115.370;2023-01-08T08:47:17;2.50;;;0.80;;
74535;SDS011;63013;51.104;-115.370;2023-01-08T08:49:44;3.00;;;1.20;;
74535;SDS011;63013;51.104;-115.370;2023-01-08T08:52:12;4.00;;;1.50;;
74535;SDS011;63013;51.104;-115.370;2023-01-08T08:54:39;2.90;;;1.30;;
74535;SDS011;63013;51.104;-115.370;2023-01-08T08:57:07;2.30;;;1.00;;
74535;SDS011;63013;51.104;-115.370;2023-01-08T08:59:35;2.10;;;1.10;;
74535;SDS011;63013;51.104;-115.370;2023-01-08T09:02:02;2.20;;;1.10;;
74535;SDS011;63013;51.104;-115.370;2023-01-08T09:04:31;2.80;;;1.20;;
74535;SDS011;63013;51.104;-115.370;2023-01-08T09:06:59;1.40;;;1.00;;
74535;SDS011;63013;51.104;-115.370;2023-01-08T09:09:26;2.20;;;1.20;;
74535;SDS011;63013;51.104;-115.370;2023-01-08T09:11:54;3.50;;;1.10;;
74535;SDS011;63013;51.104;-115.370;2023-01-08T09:14:22;2.00;;;1.20;;
74535;SDS011;63013;51.104;-115.370;2023-01-08T09:16:50;1.80;;;0.90;;
74535;SDS011;63013;51.104;-115.370;2023-01-08T09:19:17;2.30;;;1.20;;
74535;SDS011;63013;51.104;-115.370;2023-01-08T09:21:44;3.00;;;1.20;;
74535;SDS011;63013;51.104;-115.370;2023-01-08T09:24:11;2.10;;;0.90;;
74535;SDS011;63013;51.104;-115.370;2023-01-08T09:26:39;2.10;;;1.00;;
74535;SDS011;63013;51.104;-115.370;2023-01-08T09:29:06;1.90;;;1.00;;
74535;SDS011;63013;51.104;-115.370;2023-01-08T09:31:34;2.30;;;1.10;;
74535;SDS011;63013;51.104;-115.370;2023-01-08T09:34:01;1.90;;;1.00;;
74535;SDS011;63013;51.104;-115.370;2023-01-08T09:36:29;1.70;;;0.90;;
74535;SDS011;63013;51.104;-115.370;2023-01-08T09:38:56;2.10;;;1.00;;
74535;SDS011;63013;51.104;-115.370;2023-01-08T09:41:29;2.50;;;1.20;;
74535;SDS011;63013;51.104;-115.370;2023-01-08T09:44:03;2.40;;;1.10;;
74535;SDS011;63013;51.104;-115.370;2023-01-08T09:46:41;2.20;;;1.00;;
74535;SDS011;63013;51.104;-115.370;2023-01-08T09:49:14;1.70;;;0.80;;
74535;SDS011;63013;51.104;-115.370;2023-01-08T09:51:47;2.20;;;1.00;;
74535;SDS011;63013;51.104;-115.370;2023-01-08T09:54:15;2.10;;;1.20;;
74535;SDS011;63013;51.104;-115.370;2023-01-08T09:56:43;2.10;;;1.00;;
74535;SDS011;63013;51.104;-115.370;2023-01-08T09:59:16;2.90;;;1.20;;
74535;SDS011;63013;51.104;-115.370;2023-01-08T10:01:45;1.70;;;1.00;;
74535;SDS011;63013;51.104;-115.370;2023-01-08T10:04:25;1.50;;;0.80;;
74535;SDS011;63013;51.104;-115.370;2023-01-08T10:07:27;1.60;;;1.00;;
74535;SDS011;63013;51.104;-115.370;2023-01-08T10:09:54;2.60;;;1.10;;
74535;SDS011;63013;51.104;-115.370;2023-01-08T10:12:30;2.10;;;1.00;;
74535;SDS011;63013;51.104;-115.370;2023-01-08T10:15:07;2.70;;;1.00;;
74535;SDS011;63013;51.104;-115.370;2023-01-08T10:18:10;1.30;;;0.80;;
74535;SDS011;63013;51.104;-115.370;2023-01-08T10:20:39;1.80;;;1.10;;
74535;SDS011;63013;51.104;-115.370;2023-01-08T10:23:12;2.90;;;1.10;;
74535;SDS011;63013;51.104;-115.370;2023-01-08T10:25:58;2.40;;;1.30;;
74535;SDS011;63013;51.104;-115.370;2023-01-08T10:28:31;1.90;;;1.10;;
74535;SDS011;63013;51.104;-115.370;2023-01-08T10:31:15;1.40;;;1.00;;
74535;SDS011;63013;51.104;-115.370;2023-01-08T10:33:47;2.50;;;1.00;;
74535;SDS011;63013;51.104;-115.370;2023-01-08T10:36:21;2.30;;;0.90;;
74535;SDS011;63013;51.104;-115.370;2023-01-08T10:38:59;1.40;;;0.80;;
74535;SDS011;63013;51.104;-115.370;2023-01-08T10:41:27;1.60;;;0.90;;
74535;SDS011;63013;51.104;-115.370;2023-01-08T10:44:04;1.80;;;1.00;;
74535;SDS011;63013;51.104;-115.370;2023-01-08T10:46:47;2.10;;;1.00;;
74535;SDS011;63013;51.104;-115.370;2023-01-08T10:49:32;1.70;;;0.80;;
74535;SDS011;63013;51.104;-115.370;2023-01-08T10:52:04;2.00;;;0.70;;
74535;SDS011;63013;51.104;-115.370;2023-01-08T10:54:47;2.00;;;0.80;;
74535;SDS011;63013;51.104;-115.370;2023-01-08T10:57:23;1.60;;;0.80;;
74535;SDS011;63013;51.104;-115.370;2023-01-08T10:59:56;1.70;;;0.80;;
74535;SDS011;63013;51.104;-115.370;2023-01-08T11:02:38;2.40;;;1.00;;
74535;SDS011;63013;51.104;-115.370;2023-01-08T11:05:07;2.20;;;1.00;;
74535;SDS011;63013;51.104;-115.370;2023-01-08T11:07:36;1.70;;;0.70;;
74535;SDS011;63013;51.104;-115.370;2023-01-08T11:10:05;1.40;;;0.80;;
74535;SDS011;63013;51.104;-115.370;2023-01-08T11:13:04;1.30;;;0.70;;
74535;SDS011;63013;51.104;-115.370;2023-01-08T11:15:37;1.60;;;0.80;;
74535;SDS011;63013;51.104;-115.370;2023-01-08T11:18:22;2.70;;;1.10;;
74535;SDS011;63013;51.104;-115.370;2023-01-08T11:20:53;1.30;;;0.80;;
74535;SDS011;63013;51.104;-115.370;2023-01-08T11:23:33;2.50;;;0.90;;
74535;SDS011;63013;51.104;-115.370;2023-01-08T11:26:16;1.30;;;1.00;;
74535;SDS011;63013;51.104;-115.370;2023-01-08T11:29:14;1.30;;;0.70;;
74535;SDS011;63013;51.104;-115.370;2023-01-08T11:35:20;1.40;;;0.90;;
74535;SDS011;63013;51.104;-115.370;2023-01-08T11:37:55;1.50;;;0.80;;
74535;SDS011;63013;51.104;-115.370;2023-01-08T11:40:41;1.40;;;1.00;;
74535;SDS011;63013;51.104;-115.370;2023-01-08T11:43:24;1.30;;;0.80;;
74535;SDS011;63013;51.104;-115.370;2023-01-08T11:57:16;1.50;;;0.90;;
74535;SDS011;63013;51.104;-115.370;2023-01-08T12:00:03;1.60;;;0.80;;
74535;SDS011;63013;51.104;-115.370;2023-01-08T12:03:15;1.20;;;0.70;;
74535;SDS011;63013;51.104;-115.370;2023-01-08T12:06:23;1.50;;;0.70;;
74535;SDS011;63013;51.104;-115.370;2023-01-08T12:17:59;1.40;;;0.60;;
74535;SDS011;63013;51.104;-115.370;2023-01-08T12:20:38;1.20;;;0.80;;
74535;SDS011;63013;51.104;-115.370;2023-01-08T12:32:20;1.20;;;0.60;;
74535;SDS011;63013;51.104;-115.370;2023-01-08T12:38:32;1.50;;;0.80;;
74535;SDS011;63013;51.104;-115.370;2023-01-08T12:41:10;1.30;;;0.60;;
74535;SDS011;63013;51.104;-115.370;2023-01-08T12:44:04;1.40;;;0.80;;
74535;SDS011;63013;51.104;-115.370;2023-01-08T12:46:44;1.60;;;0.60;;
74535;SDS011;63013;51.104;-115.370;2023-01-08T12:49:15;1.50;;;0.70;;
74535;SDS011;63013;51.104;-115.370;2023-01-08T12:52:34;1.90;;;0.80;;
74535;SDS011;63013;51.104;-115.370;2023-01-08T12:55:29;1.30;;;0.70;;
74535;SDS011;63013;51.104;-115.370;2023-01-08T12:58:30;1.80;;;0.70;;
74535;SDS011;63013;51.104;-115.370;2023-01-08T13:01:15;1.60;;;0.80;;
74535;SDS011;63013;51.104;-115.370;2023-01-08T13:03:52;1.40;;;0.70;;
74535;SDS011;63013;51.104;-115.370;2023-01-08T13:06:21;1.20;;;0.60;;
74535;SDS011;63013;51.104;-115.370;2023-01-08T13:08:51;1.60;;;0.80;;
74535;SDS011;63013;51.104;-115.370;2023-01-08T13:11:30;2.30;;;0.70;;
74535;SDS011;63013;51.104;-115.370;2023-01-08T13:14:05;1.20;;;0.70;;
74535;SDS011;63013;51.104;-115.370;2023-01-08T13:16:40;1.70;;;0.60;;
74535;SDS011;63013;51.104;-115.370;2023-01-08T13:21:59;1.40;;;0.70;;
74535;SDS011;63013;51.104;-115.370;2023-01-08T13:24:36;1.80;;;0.50;;
74535;SDS011;63013;51.104;-115.370;2023-01-08T13:27:26;1.60;;;0.60;;
74535;SDS011;63013;51.104;-115.370;2023-01-08T13:29:54;1.20;;;0.60;;
74535;SDS011;63013;51.104;-115.370;2023-01-08T13:32:44;1.40;;;0.60;;
74535;SDS011;63013;51.104;-115.370;2023-01-08T13:35:19;1.50;;;0.70;;
74535;SDS011;63013;51.104;-115.370;2023-01-08T13:48:37;2.10;;;0.80;;
74535;SDS011;63013;51.104;-115.370;2023-01-08T13:51:42;1.00;;;0.70;;
74535;SDS011;63013;51.104;-115.370;2023-01-08T13:56:47;1.10;;;0.50;;
74535;SDS011;63013;51.104;-115.370;2023-01-08T14:00:06;1.00;;;0.60;;
74535;SDS011;63013;51.104;-115.370;2023-01-08T14:03:00;1.00;;;0.60;;
74535;SDS011;63013;51.104;-115.370;2023-01-08T14:05:25;1.70;;;0.60;;
74535;SDS011;63013;51.104;-115.370;2023-01-08T14:08:24;0.90;;;0.60;;
74535;SDS011;63013;51.104;-115.370;2023-01-08T14:10:52;2.40;;;0.90;;
74535;SDS011;63013;51.104;-115.370;2023-01-08T14:13:26;1.00;;;0.50;;
74535;SDS011;63013;51.104;-115.370;2023-01-08T14:16:02;1.80;;;0.70;;
74535;SDS011;63013;51.104;-115.370;2023-01-08T14:18:31;1.40;;;0.60;;
74535;SDS011;63013;51.104;-115.370;2023-01-08T14:20:59;1.10;;;0.50;;
74535;SDS011;63013;51.104;-115.370;2023-01-08T14:23:31;1.10;;;0.60;;
74535;SDS011;63013;51.104;-115.370;2023-01-08T14:26:33;1.00;;;0.50;;
74535;SDS011;63013;51.104;-115.370;2023-01-08T14:29:11;0.90;;;0.40;;
74535;SDS011;63013;51.104;-115.370;2023-01-08T14:31:49;1.00;;;0.50;;
74535;SDS011;63013;51.104;-115.370;2023-01-08T14:34:20;0.80;;;0.40;;
74535;SDS011;63013;51.104;-115.370;2023-01-08T14:36:52;0.90;;;0.40;;
74535;SDS011;63013;51.104;-115.370;2023-01-08T14:39:32;0.70;;;0.50;;
74535;SDS011;63013;51.104;-115.370;2023-01-08T14:45:03;0.80;;;0.50;;
74535;SDS011;63013;51.104;-115.370;2023-01-08T14:47:44;0.50;;;0.30;;
74535;SDS011;63013;51.104;-115.370;2023-01-08T14:50:33;1.00;;;0.60;;
74535;SDS011;63013;51.104;-115.370;2023-01-08T14:56:06;0.60;;;0.40;;
74535;SDS011;63013;51.104;-115.370;2023-01-08T14:58:44;0.50;;;0.40;;
74535;SDS011;63013;51.104;-115.370;2023-01-08T15:01:21;0.80;;;0.40;;
74535;SDS011;63013;51.104;-115.370;2023-01-08T15:04:03;0.70;;;0.40;;
74535;SDS011;63013;51.104;-115.370;2023-01-08T15:06:38;0.60;;;0.40;;
74535;SDS011;63013;51.104;-115.370;2023-01-08T15:09:32;0.60;;;0.40;;
74535;SDS011;63013;51.104;-115.370;2023-01-08T15:12:03;0.60;;;0.30;;
74535;SDS011;63013;51.104;-115.370;2023-01-08T15:14:32;0.40;;;0.30;;
74535;SDS011;63013;51.104;-115.370;2023-01-08T15:17:14;0.70;;;0.40;;
74535;SDS011;63013;51.104;-115.370;2023-01-08T15:19:51;0.60;;;0.50;;
74535;SDS011;63013;51.104;-115.370;2023-01-08T15:22:25;1.10;;;0.40;;
74535;SDS011;63013;51.104;-115.370;2023-01-08T15:24:59;0.40;;;0.30;;
74535;SDS011;63013;51.104;-115.370;2023-01-08T15:27:28;1.00;;;0.40;;
74535;SDS011;63013;51.104;-115.370;2023-01-08T15:30:23;0.40;;;0.30;;
74535;SDS011;63013;51.104;-115.370;2023-01-08T15:33:13;1.60;;;0.30;;
74535;SDS011;63013;51.104;-115.370;2023-01-08T15:35:47;0.40;;;0.30;;
74535;SDS011;63013;51.104;-115.370;2023-01-08T15:38:18;0.30;;;0.30;;
74535;SDS011;63013;51.104;-115.370;2023-01-08T15:40:53;0.30;;;0.30;;
74535;SDS011;63013;51.104;-115.370;2023-01-08T15:43:24;0.50;;;0.30;;
74535;SDS011;63013;51.104;-115.370;2023-01-08T15:45:53;0.20;;;0.20;;
74535;SDS011;63013;51.104;-115.370;2023-01-08T15:48:20;0.40;;;0.30;;
74535;SDS011;63013;51.104;-115.370;2023-01-08T15:50:48;0.30;;;0.30;;
74535;SDS011;63013;51.104;-115.370;2023-01-08T15:53:20;0.30;;;0.30;;
74535;SDS011;63013;51.104;-115.370;2023-01-08T15:55:48;0.30;;;0.20;;
74535;SDS011;63013;51.104;-115.370;2023-01-08T15:58:17;0.30;;;0.30;;
74535;SDS011;63013;51.104;-115.370;2023-01-08T16:00:45;0.40;;;0.40;;